Time;durP1;ratioP1;P1;durP2;ratioP2;P2;SDS_P1;SDS_P2;PMS_P1;PMS_P2;Temp;Humidity;BMP_temperature;BMP_pressure;BME280_temperature;BME280_humidity;BME280_pressure;Samples;Min_cycle;Max_cycle;Signal;HPM_P1;HPM_P2
2022/05/31 00:01:55;;;;;;;14.80;8.32;;;;;;;;;;4363122;32;19938;-75
2022/05/31 00:04:20;;;;;;;9.65;7.95;;;;;;;;;;4363665;32;20032;-75
2022/05/31 00:06:45;;;;;;;13.65;7.70;;;;;;;;;;4361707;32;20070;-75
2022/05/31 00:09:10;;;;;;;;;;;;;;;;;;4363599;32;20109;-74
2022/05/31 00:11:36;;;;;;;12.55;7.43;;;;;;;;;;4363458;32;19999;-74
2022/05/31 00:14:01;;;;;;;;;;;;;;;;;;4363031;32;20226;-74
2022/05/31 00:16:26;;;;;;;10.02;7.30;;;;;;;;;;4363029;32;19973;-74
2022/05/31 00:18:51;;;;;;;;;;;;;;;;;;4373849;32;20088;-75
2022/05/31 00:21:16;;;;;;;13.43;7.28;;;;;;;;;;4381874;32;19965;-75
2022/05/31 00:23:41;;;;;;;;;;;;;;;;;;4377086;32;20046;-76
2022/05/31 00:26:07;;;;;;;11.88;8.10;;;;;;;;;;4375045;32;19990;-76
2022/05/31 00:28:32;;;;;;;;;;;;;;;;;;4377017;32;20413;-75
2022/05/31 00:30:57;;;;;;;10.30;7.85;;;;;;;;;;4376426;32;19942;-75
2022/05/31 00:33:22;;;;;;;;;;;;;;;;;;4378554;32;20444;-75
2022/05/31 00:35:53;;;;;;;10.73;8.20;;;;;;;;;;4376584;32;19938;-75
2022/05/31 00:38:19;;;;;;;11.38;8.80;;;;;;;;;;4381635;27;20409;-76
2022/05/31 00:40:55;;;;;;;9.40;7.10;;;;;;;;;;4345612;33;20023;-76
2022/05/31 00:43:43;;;;;;;;;;;;;;;;;;;;;
2022/05/31 00:46:09;;;;;;;14.55;8.27;;;;;;;;;;4347523;33;20059;-77
2022/05/31 00:48:38;;;;;;;8.73;7.82;;;;;;;;;;4346677;33;20073;-77
2022/05/31 00:51:06;;;;;;;11.93;7.65;;;;;;;;;;4346148;33;20047;-77
2022/05/31 00:53:42;;;;;;;13.88;8.93;;;;;;;;;;4342325;33;20028;-77
2022/05/31 00:56:14;;;;;;;11.52;6.45;;;;;;;;;;4346361;33;20063;-77
2022/05/31 00:58:48;;;;;;;9.30;7.82;;;;;;;;;;4347999;33;20050;-77
2022/05/31 01:01:16;;;;;;;11.98;8.18;;;;;;;;;;4346935;33;20081;-77
2022/05/31 01:03:43;;;;;;;9.43;7.25;;;;;;;;;;4346000;33;20032;-77
2022/05/31 01:06:10;;;;;;;8.30;6.85;;;;;;;;;;4346445;33;20067;-77
2022/05/31 01:08:51;;;;;;;;;;;;;;;;;;;;;
2022/05/31 01:11:20;;;;;;;10.70;7.45;;;;;;;;;;4337928;33;20058;-77
2022/05/31 01:13:46;;;;;;;10.60;6.90;;;;;;;;;;4346365;33;20036;-77
2022/05/31 01:16:12;;;;;;;10.10;8.77;;;;;;;;;;4346154;33;20374;-77
2022/05/31 01:18:37;;;;;;;12.80;8.90;;;;;;;;;;4346000;33;20035;-77
2022/05/31 01:21:03;;;;;;;;;;;;;;;;;;4342687;33;20393;-77
2022/05/31 01:23:31;;;;;;;10.85;8.27;;;;;;;;;;4347103;33;19943;-77
2022/05/31 01:26:11;;;;;;;12.45;8.65;;;;;;;;;;4345934;33;20032;-76
2022/05/31 01:28:52;;;;;;;10.90;7.80;;;;;;;;;;4334046;33;20051;-77
2022/05/31 01:31:19;;;;;;;11.43;8.45;;;;;;;;;;4346433;33;20023;-77
2022/05/31 01:33:50;;;;;;;11.02;8.60;;;;;;;;;;4332141;33;20082;-77
2022/05/31 01:36:19;;;;;;;13.52;9.13;;;;;;;;;;4345693;33;20049;-77
2022/05/31 01:38:52;;;;;;;13.88;8.68;;;;;;;;;;4345800;33;20062;-77
2022/05/31 01:41:30;;;;;;;12.05;8.55;;;;;;;;;;4346428;33;20031;-76
2022/05/31 01:43:56;;;;;;;17.62;8.73;;;;;;;;;;4347202;33;20028;-77
2022/05/31 01:46:22;;;;;;;12.63;9.10;;;;;;;;;;4346668;33;20028;-77
2022/05/31 01:48:51;;;;;;;14.43;8.45;;;;;;;;;;4346905;33;20090;-77
2022/05/31 01:51:19;;;;;;;12.90;8.38;;;;;;;;;;4352959;33;20027;-77
2022/05/31 01:53:44;;;;;;;10.63;8.32;;;;;;;;;;4361131;32;20085;-77
2022/05/31 01:56:09;;;;;;;;;;;;;;;;;;4361004;32;20031;-77
2022/05/31 02:01:53;;;;;;;11.65;8.50;;;;;;;;;;4360555;33;20058;-77
2022/05/31 02:04:22;;;;;;;9.13;7.62;;;;;;;;;;4361043;33;20015;-77
2022/05/31 02:07:10;;;;;;;13.88;8.48;;;;;;;;;;4360061;32;20034;-77
2022/05/31 02:09:33;;;;;;;11.20;8.23;;;;;;;;;;4360527;33;20028;-77
2022/05/31 02:11:58;;;;;;;;;;;;;;;;;;4360647;33;20082;-77
2022/05/31 02:14:24;;;;;;;12.20;7.97;;;;;;;;;;4360345;33;20257;-77
2022/05/31 02:17:18;;;;;;;;;;;;;;;;;;;;;
2022/05/31 02:19:48;;;;;;;9.48;7.70;;;;;;;;;;4359774;32;20054;-77
2022/05/31 02:22:26;;;;;;;19.33;9.43;;;;;;;;;;4360013;33;20031;-77
2022/05/31 02:25:07;;;;;;;13.10;9.48;;;;;;;;;;4360345;32;20032;-76
2022/05/31 02:27:32;;;;;;;9.95;7.78;;;;;;;;;;4360546;33;20066;-76
2022/05/31 02:30:00;;;;;;;;;;;;;;;;;;4360976;33;20059;-77
2022/05/31 02:32:26;;;;;;;10.75;8.50;;;;;;;;;;4360387;33;19939;-77
2022/05/31 02:34:51;;;;;;;;;;;;;;;;;;4361099;33;20027;-77
2022/05/31 02:37:19;;;;;;;9.32;8.32;;;;;;;;;;4361115;33;19942;-77
2022/05/31 02:39:45;;;;;;;12.40;8.85;;;;;;;;;;4359816;33;20040;-77
2022/05/31 02:42:12;;;;;;;;;;;;;;;;;;4361105;33;20419;-77
2022/05/31 02:44:37;;;;;;;;;;;;;;;;;;4362268;32;19951;-77
2022/05/31 02:47:03;;;;;;;11.57;9.13;;;;;;;;;;4363294;32;19942;-77
2022/05/31 02:49:29;;;;;;;;;;;;;;;;;;4363007;32;20031;-77
2022/05/31 02:51:57;;;;;;;8.98;7.50;;;;;;;;;;4362509;32;19943;-77
2022/05/31 02:54:25;;;;;;;12.88;7.93;;;;;;;;;;4362888;32;20065;-77
2022/05/31 02:56:51;;;;;;;11.23;8.77;;;;;;;;;;4361946;32;20093;-77
2022/05/31 02:59:16;;;;;;;12.40;8.70;;;;;;;;;;4362583;32;20429;-77
2022/05/31 03:01:41;;;;;;;;;;;;;;;;;;4363221;33;20061;-77
2022/05/31 03:04:07;;;;;;;11.60;9.07;;;;;;;;;;4362877;32;19938;-76
2022/05/31 03:06:32;;;;;;;;;;;;;;;;;;4363235;32;20449;-77
2022/05/31 03:08:58;;;;;;;11.77;8.32;;;;;;;;;;4362926;33;19969;-77
2022/05/31 03:11:23;;;;;;;;;;;;;;;;;;4362824;32;20027;-77
2022/05/31 03:14:07;;;;;;;15.18;9.15;;;;;;;;;;4362459;32;20351;-77
2022/05/31 03:16:39;;;;;;;12.88;8.93;;;;;;;;;;4362475;32;20042;-77
2022/05/31 03:22:26;;;;;;;15.63;8.70;;;;;;;;;;4353438;33;20028;-77
2022/05/31 03:24:54;;;;;;;13.50;10.02;;;;;;;;;;4363042;32;20394;-77
2022/05/31 03:27:22;;;;;;;11.85;9.02;;;;;;;;;;4362971;32;20397;-77
2022/05/31 03:29:52;;;;;;;11.63;8.73;;;;;;;;;;4362339;32;20368;-77
2022/05/31 03:32:18;;;;;;;10.10;8.82;;;;;;;;;;4362533;32;20062;-76
2022/05/31 03:34:43;;;;;;;15.70;8.57;;;;;;;;;;4362076;33;20028;-76
2022/05/31 03:37:09;;;;;;;8.25;7.10;;;;;;;;;;4363147;32;20065;-76
2022/05/31 03:39:34;;;;;;;;;;;;;;;;;;4362319;32;20456;-77
2022/05/31 03:41:59;;;;;;;13.73;8.27;;;;;;;;;;4362934;32;19981;-77
2022/05/31 03:44:25;;;;;;;;;;;;;;;;;;4362598;33;20414;-77
2022/05/31 03:46:50;;;;;;;11.43;8.50;;;;;;;;;;4363277;32;19938;-76
2022/05/31 03:49:18;;;;;;;11.80;8.50;;;;;;;;;;4362407;32;20019;-77
2022/05/31 03:51:46;;;;;;;15.38;8.45;;;;;;;;;;4362216;32;20369;-76
2022/05/31 03:54:12;;;;;;;11.80;7.93;;;;;;;;;;4361955;32;20026;-76
2022/05/31 03:56:40;;;;;;;12.93;7.90;;;;;;;;;;4361577;32;20103;-76
2022/05/31 03:59:05;;;;;;;13.27;9.57;;;;;;;;;;4362061;32;20377;-76
2022/05/31 04:01:31;;;;;;;12.35;8.70;;;;;;;;;;4361622;32;20035;-76
2022/05/31 04:03:59;;;;;;;;;;;;;;;;;;4362342;32;20047;-76
2022/05/31 04:09:29;;;;;;;11.25;8.10;;;;;;;;;;4333393;33;20097;-76
2022/05/31 04:11:56;;;;;;;9.95;8.00;;;;;;;;;;4361984;32;20414;-76
2022/05/31 04:14:24;;;;;;;13.95;8.68;;;;;;;;;;4361744;32;20053;-76
2022/05/31 04:16:53;;;;;;;10.60;8.45;;;;;;;;;;4362047;32;20085;-76
2022/05/31 04:28:36;;;;;;;12.15;8.27;;;;;;;;;;4362569;32;20098;-76
2022/05/31 04:31:02;;;;;;;12.23;8.18;;;;;;;;;;4360335;32;20094;-76
2022/05/31 04:33:27;;;;;;;;;;;;;;;;;;4361687;32;20097;-78
2022/05/31 04:36:00;;;;;;;15.30;8.13;;;;;;;;;;4361725;32;20252;-76
2022/05/31 04:38:25;;;;;;;10.77;8.18;;;;;;;;;;4361782;32;20035;-77
2022/05/31 04:40:51;;;;;;;9.98;8.02;;;;;;;;;;4361699;32;20057;-76
2022/05/31 04:43:16;;;;;;;;;;;;;;;;;;4361546;32;20437;-76
2022/05/31 04:45:43;;;;;;;11.98;7.68;;;;;;;;;;4360384;32;19972;-76
2022/05/31 04:48:16;;;;;;;11.65;7.78;;;;;;;;;;4361629;32;20163;-77
2022/05/31 04:50:42;;;;;;;14.27;8.70;;;;;;;;;;4361570;32;20020;-78
2022/05/31 04:53:08;;;;;;;10.75;7.32;;;;;;;;;;4361470;32;20088;-76
2022/05/31 04:55:33;;;;;;;;;;;;;;;;;;4362212;32;20097;-77
2022/05/31 04:57:58;;;;;;;11.32;7.90;;;;;;;;;;4360990;32;19954;-77
2022/05/31 05:00:36;;;;;;;;;;;;;;;;;;;;;
2022/05/31 05:03:02;;;;;;;7.85;7.05;;;;;;;;;;4360407;33;20001;-78
2022/05/31 05:05:48;;;;;;;9.93;7.12;;;;;;;;;;4361091;33;20457;-76
2022/05/31 05:08:13;;;;;;;13.68;8.27;;;;;;;;;;4359931;32;20390;-76
2022/05/31 05:10:47;;;;;;;11.23;8.10;;;;;;;;;;4362023;32;20034;-76
2022/05/31 05:13:13;;;;;;;9.73;7.22;;;;;;;;;;4359506;32;20019;-78
2022/05/31 05:15:39;;;;;;;10.95;7.57;;;;;;;;;;4359971;32;20112;-77
2022/05/31 05:18:05;;;;;;;11.93;8.43;;;;;;;;;;4359787;32;20031;-76
2022/05/31 05:20:32;;;;;;;11.88;8.25;;;;;;;;;;4360032;32;20035;-77
2022/05/31 05:23:05;;;;;;;11.20;8.50;;;;;;;;;;4359983;32;20051;-77
2022/05/31 05:25:30;;;;;;;12.15;8.80;;;;;;;;;;4360882;32;20058;-77
2022/05/31 05:27:56;;;;;;;12.73;7.97;;;;;;;;;;4360817;32;20035;-75
2022/05/31 05:30:42;;;;;;;10.65;7.93;;;;;;;;;;4360739;32;20062;-76
2022/05/31 05:33:11;;;;;;;9.63;7.68;;;;;;;;;;4360736;32;20024;-76
2022/05/31 05:35:40;;;;;;;11.35;7.75;;;;;;;;;;4360524;32;20050;-76
2022/05/31 05:38:06;;;;;;;10.38;8.18;;;;;;;;;;4359807;32;20039;-76
2022/05/31 05:40:35;;;;;;;14.48;9.10;;;;;;;;;;4360267;32;20031;-76
2022/05/31 05:43:00;;;;;;;12.52;8.60;;;;;;;;;;4359659;32;20084;-76
2022/05/31 05:45:28;;;;;;;12.05;7.95;;;;;;;;;;4360525;32;20023;-77
2022/05/31 05:47:54;;;;;;;12.13;7.03;;;;;;;;;;4360450;32;20051;-76
2022/05/31 05:50:19;;;;;;;14.60;8.57;;;;;;;;;;4359840;32;20097;-76
2022/05/31 05:52:44;;;;;;;;;;;;;;;;;;4361132;32;20028;-76
2022/05/31 05:55:12;;;;;;;14.85;8.57;;;;;;;;;;4358840;32;20000;-78
2022/05/31 05:57:41;;;;;;;9.15;7.87;;;;;;;;;;4359892;33;20070;-76
2022/05/31 06:00:10;;;;;;;12.35;8.05;;;;;;;;;;4360464;32;20031;-77
2022/05/31 06:02:38;;;;;;;11.43;8.30;;;;;;;;;;4359081;33;20074;-76
2022/05/31 06:05:10;;;;;;;11.18;7.87;;;;;;;;;;4360036;33;20030;-76
2022/05/31 06:07:40;;;;;;;12.90;9.40;;;;;;;;;;4359933;33;20027;-76
2022/05/31 06:10:12;;;;;;;12.98;8.23;;;;;;;;;;4360735;32;20053;-76
2022/05/31 06:12:41;;;;;;;16.85;9.48;;;;;;;;;;4360689;32;20394;-76
2022/05/31 06:15:17;;;;;;;14.38;10.18;;;;;;;;;;4359708;33;20031;-77
2022/05/31 06:17:44;;;;;;;12.90;8.95;;;;;;;;;;4359977;33;20484;-77
2022/05/31 06:20:10;;;;;;;10.95;8.43;;;;;;;;;;4362381;32;20414;-76
2022/05/31 06:22:37;;;;;;;15.50;9.45;;;;;;;;;;4363275;32;20054;-75
2022/05/31 06:26:08;;;;;;;12.18;10.93;;;;;;;;;;4363282;32;20058;-76
2022/05/31 06:31:28;;;;;;;13.55;8.60;;;;;;;;;;4302707;33;20055;-76
2022/05/31 06:33:54;;;;;;;12.25;8.63;;;;;;;;;;4363245;32;20027;-77
2022/05/31 06:36:19;;;;;;;15.32;8.70;;;;;;;;;;4364259;32;20023;-77
2022/05/31 06:38:45;;;;;;;;;;;;;;;;;;4363398;32;20384;-77
2022/05/31 06:41:10;;;;;;;17.42;8.00;;;;;;;;;;4363731;32;20016;-77
2022/05/31 06:43:36;;;;;;;13.10;8.02;;;;;;;;;;4363174;32;20023;-76
2022/05/31 06:46:01;;;;;;;;;;;;;;;;;;4364364;32;20436;-76
2022/05/31 06:48:29;;;;;;;12.23;8.10;;;;;;;;;;4362690;32;19938;-76
2022/05/31 06:50:54;;;;;;;13.95;8.70;;;;;;;;;;4364261;32;20088;-77
2022/05/31 06:58:57;;;;;;;14.50;7.82;;;;;;;;;;4364107;32;20081;-76
2022/05/31 07:01:30;;;;;;;17.25;8.70;;;;;;;;;;4363857;32;20030;-76
2022/05/31 07:03:56;;;;;;;10.85;8.32;;;;;;;;;;4363707;33;20369;-76
2022/05/31 07:06:22;;;;;;;15.43;9.18;;;;;;;;;;4365138;32;20452;-76
2022/05/31 07:08:47;;;;;;;10.77;8.82;;;;;;;;;;4364250;33;20054;-77
2022/05/31 07:11:12;;;;;;;;;;;;;;;;;;4363843;32;20110;-76
2022/05/31 07:13:38;;;;;;;11.32;9.20;;;;;;;;;;4363622;32;19982;-78
2022/05/31 07:16:03;;;;;;;;;;;;;;;;;;4363366;32;20023;-77
2022/05/31 07:18:31;;;;;;;11.57;8.52;;;;;;;;;;4362738;32;19938;-76
2022/05/31 07:20:57;;;;;;;11.30;8.60;;;;;;;;;;4362991;32;20023;-77
2022/05/31 07:23:22;;;;;;;13.52;7.28;;;;;;;;;;4362509;32;20081;-76
2022/05/31 07:25:51;;;;;;;13.07;7.93;;;;;;;;;;4362603;32;20503;-77
2022/05/31 07:28:16;;;;;;;13.68;8.32;;;;;;;;;;4362469;32;20049;-76
2022/05/31 07:30:42;;;;;;;12.70;8.02;;;;;;;;;;4361697;32;20366;-77
2022/05/31 07:33:07;;;;;;;14.02;7.40;;;;;;;;;;4362384;32;20027;-77
2022/05/31 07:35:33;;;;;;;16.10;8.75;;;;;;;;;;4362433;32;20436;-76
2022/05/31 07:37:58;;;;;;;12.50;7.97;;;;;;;;;;4362037;32;20039;-76
2022/05/31 07:40:23;;;;;;;12.80;7.70;;;;;;;;;;4363486;32;20406;-76
2022/05/31 07:42:51;;;;;;;12.73;7.57;;;;;;;;;;4362617;32;20467;-77
2022/05/31 07:45:17;;;;;;;9.18;7.03;;;;;;;;;;4362899;32;20068;-77
2022/05/31 07:47:42;;;;;;;11.27;7.60;;;;;;;;;;4362250;32;20422;-76
2022/05/31 07:50:08;;;;;;;;;;;;;;;;;;4362352;32;20500;-76
2022/05/31 07:52:33;;;;;;;10.05;7.15;;;;;;;;;;4361574;32;20328;-75
2022/05/31 07:54:59;;;;;;;13.02;7.15;;;;;;;;;;4361775;32;20499;-76
2022/05/31 08:00:08;;;;;;;10.18;7.00;;;;;;;;;;4362339;32;20045;-76
2022/05/31 08:02:33;;;;;;;8.60;7.22;;;;;;;;;;4361970;32;20338;-75
2022/05/31 08:05:00;;;;;;;8.82;5.72;;;;;;;;;;4361972;32;20485;-77
2022/05/31 08:07:36;;;;;;;12.32;7.03;;;;;;;;;;4361630;32;20023;-76
2022/05/31 08:10:02;;;;;;;11.02;6.70;;;;;;;;;;4361584;32;20023;-76
2022/05/31 08:12:27;;;;;;;11.93;6.15;;;;;;;;;;4360381;32;20101;-76
2022/05/31 08:14:52;;;;;;;10.77;4.93;;;;;;;;;;4361502;32;20354;-76
2022/05/31 08:17:29;;;;;;;7.95;5.40;;;;;;;;;;4362504;32;20055;-77
2022/05/31 08:19:57;;;;;;;10.82;4.10;;;;;;;;;;4361475;32;20023;-77
2022/05/31 08:22:23;;;;;;;8.10;5.43;;;;;;;;;;4361913;32;20082;-77
2022/05/31 08:24:49;;;;;;;12.07;5.60;;;;;;;;;;4361788;32;20055;-76
2022/05/31 08:27:14;;;;;;;9.27;5.40;;;;;;;;;;4347757;33;20409;-76
2022/05/31 08:29:40;;;;;;;9.35;5.87;;;;;;;;;;4362419;32;20098;-75
2022/05/31 08:32:09;;;;;;;10.50;5.68;;;;;;;;;;4361179;32;20073;-77
2022/05/31 08:34:37;;;;;;;8.82;5.30;;;;;;;;;;4347571;33;20023;-77
2022/05/31 08:37:02;;;;;;;8.38;5.20;;;;;;;;;;4360921;32;20455;-76
2022/05/31 08:39:39;;;;;;;13.98;5.93;;;;;;;;;;4360579;32;20046;-76
2022/05/31 08:42:10;;;;;;;9.35;4.87;;;;;;;;;;4361113;32;20076;-76
2022/05/31 08:44:59;;;;;;;9.20;4.37;;;;;;;;;;4361471;32;20027;-76
2022/05/31 08:47:51;;;;;;;9.27;4.45;;;;;;;;;;4344815;33;20479;-75
2022/05/31 08:53:14;;;;;;;11.55;6.72;;;;;;;;;;4362017;32;20496;-76
2022/05/31 08:58:39;;;;;;;10.57;7.82;;;;;;;;;;4361604;32;20062;-77
2022/05/31 09:01:06;;;;;;;13.30;7.95;;;;;;;;;;4361632;32;20073;-77
2022/05/31 09:03:40;;;;;;;12.52;7.72;;;;;;;;;;4360856;32;20023;-76
2022/05/31 09:06:24;;;;;;;19.17;10.55;;;;;;;;;;4360681;33;20077;-77
2022/05/31 09:09:01;;;;;;;14.20;9.82;;;;;;;;;;4360972;32;20084;-77
2022/05/31 09:11:35;;;;;;;14.55;9.90;;;;;;;;;;4361299;32;20080;-76
2022/05/31 09:14:16;;;;;;;14.70;9.68;;;;;;;;;;4360894;32;20011;-76
2022/05/31 09:16:45;;;;;;;15.43;9.82;;;;;;;;;;4360378;32;20028;-77
2022/05/31 09:19:16;;;;;;;13.10;9.55;;;;;;;;;;4360220;32;20136;-77
2022/05/31 09:21:46;;;;;;;16.70;10.73;;;;;;;;;;4360393;32;20042;-77
2022/05/31 09:24:14;;;;;;;13.60;10.23;;;;;;;;;;4360702;32;20460;-77
2022/05/31 09:26:55;;;;;;;15.10;9.85;;;;;;;;;;4360453;32;20027;-76
2022/05/31 09:29:22;;;;;;;12.65;9.60;;;;;;;;;;4359165;32;20436;-76
2022/05/31 09:31:59;;;;;;;13.00;9.00;;;;;;;;;;4359247;32;20035;-76
2022/05/31 09:34:42;;;;;;;13.77;9.50;;;;;;;;;;4360526;32;20019;-76
2022/05/31 09:37:14;;;;;;;14.68;10.50;;;;;;;;;;4360690;32;20039;-77
2022/05/31 09:39:45;;;;;;;15.80;10.43;;;;;;;;;;4360437;32;20120;-76
2022/05/31 09:42:42;;;;;;;15.75;10.02;;;;;;;;;;4360792;32;20037;-76
2022/05/31 09:45:21;;;;;;;14.35;9.75;;;;;;;;;;4354728;32;20427;-76
2022/05/31 09:47:49;;;;;;;12.52;8.48;;;;;;;;;;4360671;32;20055;-75
2022/05/31 09:50:28;;;;;;;15.65;8.73;;;;;;;;;;4359861;32;20058;-76
2022/05/31 09:52:56;;;;;;;14.45;9.73;;;;;;;;;;4360886;32;20432;-77
2022/05/31 09:58:24;;;;;;;14.00;9.18;;;;;;;;;;4360356;32;20085;-76
2022/05/31 10:01:04;;;;;;;13.23;9.13;;;;;;;;;;4359927;32;20081;-77
2022/05/31 10:03:35;;;;;;;11.32;7.53;;;;;;;;;;4360009;33;20027;-76
2022/05/31 10:06:12;;;;;;;11.25;7.72;;;;;;;;;;4359934;33;20058;-78
2022/05/31 10:08:41;;;;;;;12.30;7.47;;;;;;;;;;4360419;33;20406;-77
2022/05/31 10:11:13;;;;;;;9.95;6.90;;;;;;;;;;4360732;32;20398;-76
2022/05/31 10:13:43;;;;;;;12.10;7.18;;;;;;;;;;4361104;33;20058;-75
2022/05/31 10:16:17;;;;;;;11.98;7.32;;;;;;;;;;4360007;32;20806;-76
2022/05/31 10:18:51;;;;;;;10.50;6.50;;;;;;;;;;4358771;33;20064;-76
2022/05/31 10:21:31;;;;;;;11.27;5.00;;;;;;;;;;4359858;33;20481;-75
2022/05/31 10:24:20;;;;;;;6.65;4.62;;;;;;;;;;4360448;33;20102;-76
2022/05/31 10:26:46;;;;;;;9.00;5.15;;;;;;;;;;4359772;32;20035;-74
2022/05/31 10:29:27;;;;;;;8.00;6.03;;;;;;;;;;4360539;33;20045;-76
2022/05/31 10:31:57;;;;;;;6.75;5.05;;;;;;;;;;4359840;33;20360;-76
2022/05/31 10:34:42;;;;;;;9.60;4.78;;;;;;;;;;4359796;33;20425;-76
2022/05/31 10:37:38;;;;;;;;;;;;;;;;;;;;;
2022/05/31 10:40:07;;;;;;;6.10;3.62;;;;;;;;;;4359187;32;20350;-75
2022/05/31 10:42:33;;;;;;;6.25;4.10;;;;;;;;;;4359475;32;20036;-76
2022/05/31 10:45:04;;;;;;;9.43;4.25;;;;;;;;;;4360415;32;20054;-73
2022/05/31 10:50:33;;;;;;;7.32;3.83;;;;;;;;;;4299416;33;20028;-76
2022/05/31 10:53:19;;;;;;;8.63;4.18;;;;;;;;;;4356533;33;20024;-75
2022/05/31 10:56:04;;;;;;;12.20;5.45;;;;;;;;;;4359998;32;20347;-76
2022/05/31 10:58:46;;;;;;;7.72;4.85;;;;;;;;;;4360675;33;20380;-75
2022/05/31 11:01:21;;;;;;;9.95;5.25;;;;;;;;;;4359565;33;20011;-75
2022/05/31 11:04:00;;;;;;;10.43;4.68;;;;;;;;;;4359627;33;20377;-75
2022/05/31 11:06:31;;;;;;;8.52;4.55;;;;;;;;;;4361665;32;20028;-76
2022/05/31 11:11:55;;;;;;;6.72;4.87;;;;;;;;;;4362616;32;20042;-76
2022/05/31 11:15:01;;;;;;;9.52;5.37;;;;;;;;;;4362471;32;20349;-76
2022/05/31 11:17:46;;;;;;;6.30;4.20;;;;;;;;;;4304173;33;20046;-76
2022/05/31 11:20:49;;;;;;;10.88;5.35;;;;;;;;;;4316827;33;20427;-76
2022/05/31 11:23:24;;;;;;;7.50;5.50;;;;;;;;;;4354618;32;20027;-75
2022/05/31 11:29:35;;;;;;;10.68;6.62;;;;;;;;;;4307568;33;20062;-76
2022/05/31 11:32:19;;;;;;;10.82;6.20;;;;;;;;;;4362534;32;20019;-77
2022/05/31 11:34:55;;;;;;;9.02;5.43;;;;;;;;;;4362799;32;20027;-77
2022/05/31 11:37:44;;;;;;;8.07;6.05;;;;;;;;;;4362306;32;20027;-75
2022/05/31 11:40:24;;;;;;;9.63;5.50;;;;;;;;;;4361822;32;20070;-75
2022/05/31 11:42:50;;;;;;;7.60;5.62;;;;;;;;;;4360411;32;20031;-75
2022/05/31 11:45:30;;;;;;;11.60;6.60;;;;;;;;;;4362001;32;20095;-75
2022/05/31 11:51:21;;;;;;;10.57;7.20;;;;;;;;;;4300039;33;20376;-77
2022/05/31 11:53:53;;;;;;;9.27;6.18;;;;;;;;;;4301658;33;20025;-76
2022/05/31 11:56:37;;;;;;;10.60;6.25;;;;;;;;;;4347892;32;20081;-75
2022/05/31 11:59:15;;;;;;;13.75;5.68;;;;;;;;;;4362040;32;20043;-77
2022/05/31 12:01:48;;;;;;;10.20;6.50;;;;;;;;;;4361687;32;20058;-76
2022/05/31 12:04:14;;;;;;;9.45;5.32;;;;;;;;;;4362677;32;20082;-77
2022/05/31 12:06:51;;;;;;;10.82;6.32;;;;;;;;;;4361456;32;20067;-76
2022/05/31 12:09:27;;;;;;;7.70;5.43;;;;;;;;;;4361716;32;20027;-75
2022/05/31 12:11:52;;;;;;;10.13;4.80;;;;;;;;;;4360943;33;20035;-76
2022/05/31 12:14:23;;;;;;;11.15;6.62;;;;;;;;;;4361892;32;20065;-77
2022/05/31 12:16:52;;;;;;;7.45;5.43;;;;;;;;;;4362005;32;20073;-77
2022/05/31 12:19:24;;;;;;;11.70;5.87;;;;;;;;;;4361610;32;20031;-76
2022/05/31 12:21:50;;;;;;;10.35;5.47;;;;;;;;;;4362005;32;20050;-76
2022/05/31 12:24:20;;;;;;;12.13;6.60;;;;;;;;;;4362744;32;20035;-76
2022/05/31 12:26:54;;;;;;;13.25;6.65;;;;;;;;;;4361849;32;20015;-75
2022/05/31 12:29:29;;;;;;;12.95;7.18;;;;;;;;;;4361585;32;20058;-77
2022/05/31 12:32:15;;;;;;;10.80;7.93;;;;;;;;;;4361921;32;20019;-77
2022/05/31 12:34:43;;;;;;;15.30;8.15;;;;;;;;;;4361619;32;20057;-75
2022/05/31 12:37:13;;;;;;;10.65;7.18;;;;;;;;;;4361118;32;20070;-75
2022/05/31 12:39:46;;;;;;;19.55;7.75;;;;;;;;;;4361192;32;20087;-76
2022/05/31 12:42:31;;;;;;;14.07;7.78;;;;;;;;;;4360944;32;20027;-76
2022/05/31 12:45:15;;;;;;;11.45;8.05;;;;;;;;;;4361615;32;20019;-76
2022/05/31 12:47:41;;;;;;;13.82;7.62;;;;;;;;;;4361451;32;20451;-77
2022/05/31 12:50:10;;;;;;;9.75;6.75;;;;;;;;;;4361008;33;20028;-76
2022/05/31 12:58:39;;;;;;;17.10;3.75;;;;;;;;;;4355095;32;20132;-76
2022/05/31 13:01:11;;;;;;;8.57;3.12;;;;;;;;;;4361617;32;20024;-75
2022/05/31 13:03:42;;;;;;;8.07;2.78;;;;;;;;;;4360722;32;20035;-75
2022/05/31 13:06:15;;;;;;;10.57;3.20;;;;;;;;;;4360663;32;20056;-77
2022/05/31 13:08:52;;;;;;;6.62;3.05;;;;;;;;;;4361506;32;20038;-75
2022/05/31 13:20:11;;;;;;;14.10;7.70;;;;;;;;;;4360875;32;20041;-76
2022/05/31 13:22:38;;;;;;;14.48;7.93;;;;;;;;;;4360196;32;20100;-76
2022/05/31 13:25:24;;;;;;;12.27;8.50;;;;;;;;;;4360770;32;20065;-76
2022/05/31 13:31:14;;;;;;;9.93;6.95;;;;;;;;;;4299820;33;20075;-76
2022/05/31 13:34:14;;;;;;;9.30;6.03;;;;;;;;;;4299975;33;20463;-76
2022/05/31 13:36:41;;;;;;;12.05;6.50;;;;;;;;;;4297729;33;20028;-76
2022/05/31 13:39:10;;;;;;;10.73;6.90;;;;;;;;;;4323972;33;20101;-75
2022/05/31 13:41:55;;;;;;;8.80;5.82;;;;;;;;;;4360105;32;20069;-76
2022/05/31 13:44:22;;;;;;;8.18;5.05;;;;;;;;;;4360596;32;20031;-76
2022/05/31 13:49:45;;;;;;;12.70;7.27;;;;;;;;;;4351209;33;20053;-76
2022/05/31 13:52:49;;;;;;;6.87;5.37;;;;;;;;;;4361440;32;20043;-76
2022/05/31 14:01:54;;;;;;;8.23;5.60;;;;;;;;;;4300158;33;20082;-76
2022/05/31 14:04:23;;;;;;;9.10;5.90;;;;;;;;;;4299508;33;20033;-76
2022/05/31 14:06:50;;;;;;;10.02;5.57;;;;;;;;;;4337375;33;20120;-75
2022/05/31 14:09:49;;;;;;;;;;;;;;;;;;;;;
2022/05/31 14:12:17;;;;;;;6.45;4.82;;;;;;;;;;4357677;33;20035;-76
2022/05/31 14:14:49;;;;;;;7.47;5.00;;;;;;;;;;4360767;33;20039;-76
2022/05/31 14:17:29;;;;;;;9.80;4.60;;;;;;;;;;4360880;33;20433;-76
2022/05/31 14:19:55;;;;;;;6.97;4.82;;;;;;;;;;4360595;32;20393;-76
2022/05/31 14:22:22;;;;;;;6.30;4.40;;;;;;;;;;4359323;33;20069;-75
2022/05/31 14:24:52;;;;;;;8.50;5.68;;;;;;;;;;4360249;33;20027;-76
2022/05/31 14:27:19;;;;;;;5.62;3.72;;;;;;;;;;4360984;33;20114;-75
2022/05/31 14:29:59;;;;;;;8.52;3.78;;;;;;;;;;4360139;33;20405;-77
2022/05/31 14:32:36;;;;;;;8.05;3.65;;;;;;;;;;4360564;33;20307;-76
2022/05/31 14:35:10;;;;;;;9.75;4.12;;;;;;;;;;4360144;33;20023;-76
2022/05/31 14:37:41;;;;;;;4.78;3.50;;;;;;;;;;4360572;33;20363;-75
2022/05/31 14:40:22;;;;;;;8.77;4.55;;;;;;;;;;4360983;32;20039;-75
2022/05/31 14:43:07;;;;;;;;;;;;;;;;;;;;;
2022/05/31 14:46:05;;;;;;;5.65;3.95;;;;;;;;;;4360126;32;20369;-75
2022/05/31 14:48:39;;;;;;;4.78;3.03;;;;;;;;;;4364211;32;20031;-75
2022/05/31 14:51:14;;;;;;;6.50;3.50;;;;;;;;;;4363732;32;20072;-75
2022/05/31 14:53:40;;;;;;;5.20;3.10;;;;;;;;;;4362922;32;20088;-75
2022/05/31 14:56:38;;;;;;;;;;;;;;;;;;;;;
2022/05/31 14:59:22;;;;;;;5.72;3.75;;;;;;;;;;4363448;32;20030;-75
2022/05/31 15:01:48;;;;;;;4.75;3.25;;;;;;;;;;4363083;32;20023;-75
2022/05/31 15:04:27;;;;;;;6.18;4.12;;;;;;;;;;4363223;32;20027;-75
2022/05/31 15:07:04;;;;;;;6.75;4.68;;;;;;;;;;4362277;32;20027;-76
2022/05/31 15:09:30;;;;;;;6.10;3.85;;;;;;;;;;4363451;32;20127;-77
2022/05/31 15:20:32;;;;;;;8.63;4.90;;;;;;;;;;4362775;32;20369;-77
2022/05/31 15:22:57;;;;;;;8.57;5.10;;;;;;;;;;4362158;33;20039;-76
2022/05/31 15:25:31;;;;;;;9.35;5.60;;;;;;;;;;4362166;32;20027;-75
2022/05/31 15:27:57;;;;;;;8.52;5.60;;;;;;;;;;4362644;32;20031;-75
2022/05/31 15:30:25;;;;;;;12.75;5.62;;;;;;;;;;4362059;32;20379;-75
2022/05/31 15:32:51;;;;;;;8.30;5.93;;;;;;;;;;4362324;33;20027;-75
2022/05/31 15:35:19;;;;;;;10.57;6.47;;;;;;;;;;4363884;32;20050;-75
2022/05/31 15:37:46;;;;;;;11.60;6.80;;;;;;;;;;4363363;32;20032;-76
2022/05/31 15:40:14;;;;;;;11.73;6.22;;;;;;;;;;4362762;32;20097;-76
2022/05/31 15:42:47;;;;;;;8.68;6.30;;;;;;;;;;4363644;32;20094;-76
2022/05/31 15:45:21;;;;;;;10.98;6.40;;;;;;;;;;4364344;32;20027;-75
2022/05/31 15:47:47;;;;;;;6.70;5.40;;;;;;;;;;4363094;32;20019;-76
2022/05/31 15:50:12;;;;;;;5.90;5.05;;;;;;;;;;4363621;32;20081;-76
2022/05/31 15:52:39;;;;;;;8.18;5.50;;;;;;;;;;4362472;32;20030;-75
2022/05/31 15:55:05;;;;;;;6.40;4.90;;;;;;;;;;4364050;32;20165;-77
2022/05/31 15:57:36;;;;;;;5.68;4.62;;;;;;;;;;4362889;32;20121;-75
2022/05/31 16:00:02;;;;;;;10.40;5.30;;;;;;;;;;4362901;32;20024;-74
2022/05/31 16:02:28;;;;;;;9.30;5.30;;;;;;;;;;4362667;32;20027;-76
2022/05/31 16:04:59;;;;;;;6.82;5.28;;;;;;;;;;4362453;32;20073;-76
2022/05/31 16:07:39;;;;;;;6.28;4.53;;;;;;;;;;4363576;32;20015;-75
2022/05/31 16:10:08;;;;;;;11.32;5.12;;;;;;;;;;4360916;32;20069;-75
2022/05/31 16:12:52;;;;;;;7.97;5.55;;;;;;;;;;4362058;32;20081;-75
2022/05/31 16:15:20;;;;;;;10.10;6.03;;;;;;;;;;4362422;32;20079;-75
2022/05/31 16:17:46;;;;;;;8.13;6.85;;;;;;;;;;4361534;33;20047;-75
2022/05/31 16:20:11;;;;;;;6.50;5.90;;;;;;;;;;4362151;32;20077;-75
2022/05/31 16:22:49;;;;;;;10.43;6.82;;;;;;;;;;4360324;32;20031;-74
2022/05/31 16:25:16;;;;;;;10.20;8.05;;;;;;;;;;4363002;32;20027;-74
2022/05/31 16:27:44;;;;;;;15.38;7.03;;;;;;;;;;4361449;32;20035;-75
2022/05/31 16:30:10;;;;;;;19.67;9.77;;;;;;;;;;4361781;32;20089;-73
2022/05/31 16:32:37;;;;;;;18.65;9.25;;;;;;;;;;4362301;32;20020;-75
2022/05/31 16:35:02;;;;;;;10.50;7.80;;;;;;;;;;4361305;32;20028;-74
2022/05/31 16:42:56;;;;;;;9.63;8.52;;;;;;;;;;4361532;32;20073;-75
2022/05/31 16:45:21;;;;;;;11.45;8.07;;;;;;;;;;4361566;32;20023;-75
2022/05/31 16:47:47;;;;;;;9.73;6.87;;;;;;;;;;4360329;32;20032;-76